Time;durP1;ratioP1;P1;durP2;ratioP2;P2;SDS_P1;SDS_P2;PMS_P1;PMS_P2;Temp;Humidity;BMP_temperature;BMP_pressure;BME280_temperature;BME280_humidity;BME280_pressure;Samples;Min_cycle;Max_cycle;Signal;HPM_P1;HPM_P2
2024/01/25 00:01:27;;;;;;;51.00;8.30;;;8.30;99.90;;;;;;5022114;28;47299;-81
2024/01/25 00:03:53;;;;;;;47.47;6.73;;;8.30;99.90;;;;;;5025529;28;38019;-82
2024/01/25 00:06:20;;;;;;;60.33;7.83;;;8.30;99.90;;;;;;4999897;28;37942;-81
2024/01/25 00:08:48;;;;;;;49.37;8.03;;;8.40;99.90;;;;;;5033569;28;20051;-81
2024/01/25 00:11:14;;;;;;;46.13;7.70;;;8.50;99.90;;;;;;5018862;28;38200;-80
2024/01/25 00:13:40;;;;;;;42.90;7.07;;;8.50;99.90;;;;;;5033708;28;38763;-82
2024/01/25 00:16:06;;;;;;;49.17;8.23;;;8.50;99.90;;;;;;5014569;28;38218;-82
2024/01/25 00:18:33;;;;;;;40.73;8.00;;;8.50;99.90;;;;;;5021513;28;40227;-81
2024/01/25 00:20:59;;;;;;;44.13;7.37;;;8.50;99.90;;;;;;5031715;28;39606;-81
2024/01/25 00:23:26;;;;;;;47.87;7.33;;;8.50;99.90;;;;;;5016173;28;36239;-80
2024/01/25 00:25:52;;;;;;;51.67;6.87;;;8.40;99.90;;;;;;5005508;28;37916;-81
2024/01/25 00:28:19;;;;;;;48.63;7.13;;;8.40;99.90;;;;;;5004718;28;37619;-82
2024/01/25 00:30:45;;;;;;;44.57;7.20;;;8.40;99.90;;;;;;5009879;28;37035;-81
2024/01/25 00:33:11;;;;;;;47.37;7.77;;;8.40;99.90;;;;;;5011228;28;36138;-82
2024/01/25 00:35:38;;;;;;;46.57;7.13;;;8.40;99.90;;;;;;5025903;28;39110;-81
2024/01/25 00:38:04;;;;;;;47.47;7.60;;;8.40;99.90;;;;;;5014737;28;37845;-81
2024/01/25 00:40:30;;;;;;;52.83;8.20;;;8.30;99.90;;;;;;5011739;28;37210;-82
2024/01/25 00:42:57;;;;;;;51.70;8.50;;;8.30;99.90;;;;;;5027766;28;37903;-82
2024/01/25 00:45:24;;;;;;;49.83;7.93;;;8.30;99.90;;;;;;5029181;28;38843;-82
2024/01/25 00:47:50;;;;;;;52.17;7.17;;;8.20;99.90;;;;;;5009381;28;37113;-82
2024/01/25 00:50:20;;;;;;;41.50;7.13;;;8.20;99.90;;;;;;5029521;28;39125;-82
2024/01/25 00:52:48;;;;;;;45.87;7.20;;;8.20;99.90;;;;;;5022705;28;37518;-82
2024/01/25 00:55:15;;;;;;;44.60;6.73;;;8.20;99.90;;;;;;5012839;28;38002;-82
2024/01/25 00:57:41;;;;;;;48.63;8.43;;;8.10;99.90;;;;;;5026194;28;38643;-82
2024/01/25 01:00:08;;;;;;;44.80;6.70;;;8.10;99.90;;;;;;5033997;28;39604;-82
2024/01/25 01:02:42;;;;;;;47.97;7.20;;;8.10;99.90;;;;;;5009872;28;35771;-82
2024/01/25 01:05:09;;;;;;;46.50;7.13;;;8.10;99.90;;;;;;5020160;28;38118;-83
2024/01/25 01:07:35;;;;;;;48.23;7.83;;;8.10;99.90;;;;;;5009521;28;38113;-83
2024/01/25 01:10:05;;;;;;;53.67;8.87;;;8.10;99.90;;;;;;5010934;28;36886;-82
2024/01/25 01:12:32;;;;;;;40.13;6.77;;;8.00;99.90;;;;;;5012177;28;46872;-82
2024/01/25 01:14:58;;;;;;;47.03;7.77;;;8.00;99.90;;;;;;5039577;28;38995;-82
2024/01/25 01:17:24;;;;;;;46.67;7.30;;;8.00;99.90;;;;;;5004967;28;38325;-82
2024/01/25 01:19:50;;;;;;;44.73;8.23;;;8.00;99.90;;;;;;5019582;28;36927;-82
2024/01/25 01:22:16;;;;;;;57.83;8.37;;;8.00;99.90;;;;;;5024941;28;36228;-82
2024/01/25 01:24:42;;;;;;;45.67;6.97;;;8.00;99.90;;;;;;5004980;28;39805;-83
2024/01/25 01:27:08;;;;;;;42.90;6.80;;;8.00;99.90;;;;;;5023360;28;38883;-82
2024/01/25 01:29:34;;;;;;;37.90;6.10;;;8.00;99.90;;;;;;5005152;28;36839;-82
2024/01/25 01:32:01;;;;;;;32.87;5.87;;;8.00;99.90;;;;;;5006086;28;36262;-82
2024/01/25 01:34:27;;;;;;;42.83;6.57;;;8.00;99.90;;;;;;5019028;28;47663;-82
2024/01/25 01:36:53;;;;;;;46.33;7.70;;;8.00;99.30;;;;;;5008483;28;38574;-82
2024/01/25 01:39:19;;;;;;;44.97;8.10;;;8.00;97.90;;;;;;5008523;28;37677;-82
2024/01/25 01:41:49;;;;;;;41.07;7.83;;;8.00;97.50;;;;;;5002584;28;36552;-82
2024/01/25 01:44:15;;;;;;;47.77;8.10;;;8.00;99.10;;;;;;5001914;28;41099;-82
2024/01/25 01:46:42;;;;;;;40.97;7.20;;;7.90;97.20;;;;;;5014578;28;38686;-83
2024/01/25 01:49:12;;;;;;;43.27;7.97;;;7.90;98.80;;;;;;5012889;28;37324;-82
2024/01/25 01:51:39;;;;;;;47.50;7.77;;;7.90;96.60;;;;;;5018664;28;35685;-82
2024/01/25 01:54:09;;;;;;;49.30;6.77;;;7.80;98.40;;;;;;5015867;28;39157;-82
2024/01/25 01:56:36;;;;;;;50.43;7.40;;;7.90;98.20;;;;;;5007135;28;37236;-82
2024/01/25 01:59:08;;;;;;;35.50;7.10;;;7.80;98.40;;;;;;5026907;28;38465;-82
2024/01/25 02:04:48;;;;;;;38.27;6.40;;;7.70;98.10;;;;;;5696915;22;19929;-82
2024/01/25 02:37:07;;;;;;;43.00;7.07;;;7.60;99.90;;;;;;5410562;22;20051;-83
2024/01/25 02:40:00;;;;;;;42.20;7.30;;;7.50;99.80;;;;;;5080932;28;49229;-82
2024/01/25 02:43:09;;;;;;;45.97;7.03;;;7.60;99.90;;;;;;5071892;28;39373;-82
2024/01/25 02:45:52;;;;;;;26.83;6.13;;;7.60;96.10;;;;;;5049272;28;49258;-82
2024/01/25 02:48:59;;;;;;;36.40;6.82;;;7.50;94.10;;;;;;5044873;23;38945;-82
2024/01/25 02:51:45;;;;;;;46.70;6.97;;;7.50;95.00;;;;;;5093094;28;38422;-81
2024/01/25 02:54:53;;;;;;;33.10;6.03;;;7.30;98.20;;;;;;5069044;28;38922;-81
2024/01/25 02:58:08;;;;;;;32.90;5.70;;;7.30;99.80;;;;;;5053037;28;38679;-82
2024/01/25 03:04:21;;;;;;;40.63;6.97;;;7.00;99.90;;;;;;5065042;28;50685;-84
2024/01/25 03:06:56;;;;;;;40.97;5.90;;;6.70;99.90;;;;;;5025194;28;47994;-84
2024/01/25 03:10:14;;;;;;;;;;;;;;;;;;;;;
2024/01/25 03:13:03;;;;;;;35.50;6.43;;;6.50;99.90;;;;;;5064562;28;49884;-82
2024/01/25 03:15:56;;;;;;;52.83;6.43;;;6.30;99.90;;;;;;5028625;28;37438;-83
2024/01/25 03:18:27;;;;;;;47.43;7.40;;;6.30;99.90;;;;;;5066054;28;38605;-83
2024/01/25 03:21:38;;;;;;;45.70;6.63;;;6.20;99.90;;;;;;5063394;28;37463;-83
2024/01/25 03:24:07;;;;;;;48.17;6.17;;;6.10;99.90;;;;;;5103044;28;48532;-82
2024/01/25 03:26:50;;;;;;;36.93;6.27;;;5.90;99.90;;;;;;5067095;28;39898;-83
2024/01/25 03:29:26;;;;;;;39.13;6.03;;;5.80;99.90;;;;;;5048589;28;38381;-83
2024/01/25 03:32:05;;;;;;;40.43;6.40;;;5.60;99.90;;;;;;5066533;28;39165;-82
2024/01/25 03:34:44;;;;;;;38.97;6.20;;;5.50;99.90;;;;;;5021305;28;48878;-82
2024/01/25 03:37:30;;;;;;;43.90;6.90;;;5.50;99.90;;;;;;5043329;28;38112;-82
2024/01/25 03:40:39;;;;;;;40.53;6.93;;;5.40;99.90;;;;;;5056553;28;38781;-83
2024/01/25 03:43:45;;;;;;;33.97;5.67;;;5.30;99.90;;;;;;5060319;28;48028;-83
2024/01/25 03:46:28;;;;;;;45.40;6.80;;;5.30;99.90;;;;;;5055621;28;38582;-82
2024/01/25 03:49:12;;;;;;;44.53;6.57;;;5.20;99.90;;;;;;5072301;28;38032;-82
2024/01/25 03:51:39;;;;;;;60.17;7.60;;;5.20;99.90;;;;;;5040730;28;49302;-84
2024/01/25 03:54:10;;;;;;;44.07;6.43;;;5.20;99.90;;;;;;5051337;28;37135;-83
2024/01/25 03:56:44;;;;;;;32.43;6.10;;;5.10;99.90;;;;;;5068351;28;38942;-82
2024/01/25 03:59:36;;;;;;;39.90;6.63;;;5.10;99.90;;;;;;5066375;28;38320;-82
2024/01/25 04:02:10;;;;;;;47.67;6.57;;;5.10;99.90;;;;;;5069319;28;38771;-83
2024/01/25 04:04:59;;;;;;;33.00;5.83;;;5.00;99.90;;;;;;5065154;28;37740;-83
2024/01/25 04:07:47;;;;;;;46.67;7.87;;;4.90;99.90;;;;;;5061616;28;38907;-82
2024/01/25 04:10:14;;;;;;;47.87;8.40;;;4.90;99.90;;;;;;5078032;28;39830;-83
2024/01/25 04:12:47;;;;;;;48.47;7.50;;;4.90;99.90;;;;;;5075865;28;37189;-83
2024/01/25 04:15:18;;;;;;;53.55;7.88;;;5.10;99.90;;;;;;5059356;28;36881;-83
2024/01/25 04:18:04;;;;;;;50.13;7.25;;;5.10;99.90;;;;;;5079298;28;39301;-82
2024/01/25 04:20:37;;;;;;;51.30;7.10;;;5.30;99.90;;;;;;5065234;28;50110;-82
2024/01/25 04:23:16;;;;;;;;;;;5.30;99.90;;;;;;5044490;28;38203;-82
2024/01/25 04:26:04;;;;;;;56.10;7.83;;;5.30;99.90;;;;;;5039633;28;37846;-84
2024/01/25 04:32:13;;;;;;;49.27;7.50;;;5.10;99.90;;;;;;5009928;28;49709;-83
2024/01/25 04:34:47;;;;;;;48.37;6.73;;;5.10;99.90;;;;;;5010820;28;47392;-83
2024/01/25 04:37:26;;;;;;;42.80;6.93;;;5.10;99.90;;;;;;5032333;28;37791;-82
2024/01/25 04:39:59;;;;;;;44.67;7.00;;;5.00;99.90;;;;;;5033922;28;39109;-83
2024/01/25 04:42:49;;;;;;;43.20;6.60;;;4.90;99.90;;;;;;5014036;28;39535;-83
2024/01/25 04:45:16;;;;;;;49.17;9.03;;;4.80;99.90;;;;;;5001535;28;39482;-81
2024/01/25 04:47:44;;;;;;;58.57;7.60;;;4.80;99.90;;;;;;5022390;28;36482;-81
2024/01/25 04:50:19;;;;;;;49.90;7.33;;;4.90;99.90;;;;;;5036245;28;39630;-82
2024/01/25 04:53:22;;;;;;;38.63;6.47;;;4.90;99.90;;;;;;5042195;28;38873;-82
2024/01/25 04:56:03;;;;;;;57.37;6.70;;;4.90;99.90;;;;;;5052099;28;50035;-82
2024/01/25 04:58:59;;;;;;;45.77;7.03;;;4.70;99.90;;;;;;5053055;28;48430;-83
2024/01/25 05:02:46;;;;;;;;;;;;;;;;;;;;;
2024/01/25 05:05:09;;;;;;;52.43;7.53;;;4.50;99.90;;;;;;5008937;28;50222;-82
2024/01/25 05:07:57;;;;;;;44.47;6.17;;;4.50;99.90;;;;;;4991632;28;49046;-82
2024/01/25 05:10:48;;;;;;;41.27;6.73;;;4.40;99.90;;;;;;4999827;28;37658;-82
2024/01/25 05:13:39;;;;;;;;;;;;;;;;;;;;;
2024/01/25 05:16:46;;;;;;;46.90;7.03;;;4.40;99.90;;;;;;4994628;28;39171;-83
2024/01/25 05:19:26;;;;;;;41.27;5.93;;;4.40;99.90;;;;;;4995798;28;38845;-82
2024/01/25 05:21:56;;;;;;;44.30;6.80;;;4.40;99.90;;;;;;5033723;28;37334;-83
2024/01/25 05:25:09;;;;;;;33.77;5.77;;;4.30;99.90;;;;;;5166815;22;38680;-81
2024/01/25 05:27:47;;;;;;;48.45;6.85;;;4.10;99.90;;;;;;5036124;28;47417;-82
2024/01/25 05:30:20;;;;;;;50.70;6.80;;;4.10;99.90;;;;;;5372607;22;39492;-80
2024/01/25 05:32:56;;;;;;;49.23;7.63;;;4.10;99.90;;;;;;5031309;28;36917;-82
2024/01/25 05:35:29;;;;;;;32.40;5.57;;;4.10;99.90;;;;;;5013987;28;40012;-81
2024/01/25 05:38:54;;;;;;;38.53;6.63;;;4.20;99.90;;;;;;5033069;28;40507;-82
2024/01/25 05:41:35;;;;;;;45.00;6.50;;;4.20;99.90;;;;;;4987516;28;48587;-82
2024/01/25 05:44:45;;;;;;;41.20;6.53;;;4.10;99.90;;;;;;5018046;28;37147;-81
2024/01/25 05:47:28;;;;;;;48.60;7.57;;;4.00;99.90;;;;;;5012462;28;39794;-82
2024/01/25 05:50:29;;;;;;;52.23;8.03;;;4.00;99.90;;;;;;5053058;28;39882;-82
2024/01/25 05:53:16;;;;;;;65.00;7.50;;;4.00;99.90;;;;;;4989224;28;50214;-81
2024/01/25 05:56:04;;;;;;;63.73;9.83;;;4.20;99.90;;;;;;5193902;22;48996;-80
2024/01/25 05:58:40;;;;;;;45.60;7.47;;;4.40;99.90;;;;;;5009711;28;46255;-81
2024/01/25 06:01:16;;;;;;;47.43;8.07;;;4.40;99.90;;;;;;5052670;28;37749;-80
2024/01/25 06:04:15;;;;;;;52.33;7.83;;;4.40;99.90;;;;;;5227005;23;39155;-82
2024/01/25 06:06:46;;;;;;;41.07;7.40;;;4.40;99.90;;;;;;5041203;28;49856;-83
2024/01/25 06:09:31;;;;;;;56.67;7.18;;;4.30;99.90;;;;;;5085804;22;39542;-82
2024/01/25 06:12:19;;;;;;;50.40;6.70;;;4.10;99.90;;;;;;5042859;28;39204;-82
2024/01/25 06:17:36;;;;;;;44.53;6.73;;;3.90;99.90;;;;;;5116445;22;20041;-82
2024/01/25 06:20:15;;;;;;;52.83;8.53;;;3.80;99.90;;;;;;5068993;28;41456;-80
2024/01/25 06:22:46;;;;;;;29.10;5.70;;;3.70;99.90;;;;;;5068393;28;48842;-80
2024/01/25 06:25:23;;;;;;;48.43;6.57;;;3.60;99.90;;;;;;5041138;28;37692;-80
2024/01/25 06:27:58;;;;;;;33.20;5.87;;;3.60;99.90;;;;;;5067332;28;37577;-81
2024/01/25 06:30:33;;;;;;;50.57;8.03;;;3.70;99.90;;;;;;5049068;28;38978;-81
2024/01/25 06:33:02;;;;;;;37.93;7.93;;;3.70;99.90;;;;;;5051553;28;37228;-81
2024/01/25 06:35:34;;;;;;;50.33;7.03;;;3.60;99.90;;;;;;5081248;23;40509;-81
2024/01/25 06:38:24;;;;;;;39.75;6.75;;;3.60;99.90;;;;;;5017258;28;37757;-80
2024/01/25 06:41:09;;;;;;;33.00;6.80;;;3.50;99.90;;;;;;4980471;28;47657;-80
2024/01/25 06:44:02;;;;;;;45.20;6.93;;;3.50;99.90;;;;;;4996111;28;49947;-81
2024/01/25 06:46:34;;;;;;;42.13;6.27;;;3.50;99.90;;;;;;5008747;28;39815;-81
2024/01/25 06:49:07;;;;;;;44.50;6.50;;;3.50;99.90;;;;;;5015611;28;38670;-79
2024/01/25 06:51:52;;;;;;;53.77;8.20;;;3.50;99.90;;;;;;4997374;28;49936;-82
2024/01/25 06:55:00;;;;;;;55.23;8.47;;;3.50;99.90;;;;;;4995382;28;39860;-81
2024/01/25 06:57:28;;;;;;;47.63;6.97;;;3.50;99.90;;;;;;5010036;28;38574;-82
2024/01/25 06:59:55;;;;;;;41.67;7.37;;;3.70;99.90;;;;;;5015018;28;38656;-80
2024/01/25 07:02:24;;;;;;;40.50;7.80;;;3.80;99.90;;;;;;5016778;28;37892;-80
2024/01/25 07:04:54;;;;;;;42.43;7.53;;;3.80;99.90;;;;;;5015413;28;37859;-80
2024/01/25 07:07:29;;;;;;;51.87;7.63;;;3.80;99.90;;;;;;5015221;28;38581;-81
2024/01/25 07:09:59;;;;;;;34.07;6.57;;;3.80;99.90;;;;;;4995721;28;37471;-83
2024/01/25 07:12:36;;;;;;;47.43;7.90;;;3.80;99.90;;;;;;5097445;23;39195;-83
2024/01/25 07:15:32;;;;;;;38.50;7.00;;;3.80;99.90;;;;;;5022869;28;39958;-81
2024/01/25 07:25:59;;;;;;;46.70;8.47;;;4.00;99.90;;;;;;5295617;22;20044;-81
2024/01/25 07:28:38;;;;;;;37.47;7.10;;;4.00;99.90;;;;;;5044616;27;39641;-81
2024/01/25 07:31:34;;;;;;;38.93;9.63;;;4.00;99.90;;;;;;5022897;28;38476;-82
2024/01/25 07:34:43;;;;;;;62.43;8.73;;;4.00;99.90;;;;;;5912376;22;39506;-81
2024/01/25 07:37:40;;;;;;;44.30;8.10;;;4.10;99.90;;;;;;5431659;22;37180;-81
2024/01/25 07:40:39;;;;;;;41.77;6.77;;;4.00;99.90;;;;;;5008077;28;37520;-81
2024/01/25 07:45:54;;;;;;;54.57;8.57;;;4.10;99.90;;;;;;5917985;23;20017;-81
2024/01/25 07:48:20;;;;;;;47.20;9.60;;;4.20;99.90;;;;;;5069956;28;35903;-82
2024/01/25 07:50:46;;;;;;;52.00;8.27;;;4.30;99.90;;;;;;5069294;28;37847;-81
2024/01/25 07:53:14;;;;;;;31.47;6.87;;;4.30;99.90;;;;;;5074293;28;37677;-81
2024/01/25 07:55:41;;;;;;;49.73;7.67;;;4.30;99.90;;;;;;5090912;28;40304;-81
2024/01/25 07:58:08;;;;;;;45.67;6.87;;;4.40;99.90;;;;;;5066034;28;37608;-82
2024/01/25 08:00:34;;;;;;;36.87;7.43;;;4.40;99.90;;;;;;5068553;28;37616;-82
2024/01/25 08:03:01;;;;;;;37.23;7.40;;;4.40;99.90;;;;;;5061265;28;37384;-82
2024/01/25 08:05:30;;;;;;;60.97;9.67;;;4.40;99.90;;;;;;5086163;28;48112;-82
2024/01/25 08:07:56;;;;;;;52.13;8.93;;;4.40;99.90;;;;;;5079688;28;39606;-81
2024/01/25 08:10:23;;;;;;;51.63;8.23;;;4.50;99.90;;;;;;5085689;28;36999;-82
2024/01/25 08:12:49;;;;;;;47.83;9.97;;;4.50;99.90;;;;;;5079658;28;35988;-82
2024/01/25 08:15:15;;;;;;;41.77;9.10;;;4.60;99.90;;;;;;5072096;28;39366;-82
2024/01/25 08:17:42;;;;;;;49.03;9.20;;;4.60;99.90;;;;;;5070136;28;38045;-82
2024/01/25 08:20:13;;;;;;;61.87;11.13;;;4.60;99.90;;;;;;5063789;28;38169;-82
2024/01/25 08:22:44;;;;;;;46.73;9.50;;;4.60;99.90;;;;;;5084089;28;37661;-82
2024/01/25 08:25:16;;;;;;;49.67;7.63;;;4.60;99.90;;;;;;5055691;28;38930;-81
2024/01/25 08:43:43;;;;;;;43.70;9.70;;;4.60;99.90;;;;;;5635453;22;20041;-82
2024/01/25 08:46:12;;;;;;;;;;;4.70;99.90;;;;;;5065854;28;38033;-82
2024/01/25 08:48:42;;;;;;;46.73;9.50;;;4.70;99.90;;;;;;5063380;28;38615;-82
2024/01/25 08:54:37;;;;;;;54.13;11.65;;;4.80;99.90;;;;;;5069103;22;20051;-83
2024/01/25 09:02:33;;;;;;;46.97;9.03;;;5.00;99.90;;;;;;5150751;23;20049;-82
2024/01/25 09:14:20;;;;;;;60.20;11.05;;;5.30;99.90;;;;;;5103029;22;20041;-83
2024/01/25 09:17:32;;;;;;;44.67;9.63;;;5.30;99.90;;;;;;5052285;28;38413;-82
2024/01/25 09:20:48;;;;;;;47.57;9.20;;;5.50;99.90;;;;;;5010766;28;49349;-82
2024/01/25 09:40:42;;;;;;;51.43;11.10;;;5.70;99.90;;;;;;5527954;22;19909;-82
2024/01/25 09:46:35;;;;;;;64.23;10.90;;;5.90;99.90;;;;;;5128350;22;20051;-82
2024/01/25 09:58:42;;;;;;;54.40;12.47;;;6.20;99.90;;;;;;5046682;28;20126;-81
2024/01/25 10:04:41;;;;;;;58.70;13.57;;;6.30;99.90;;;;;;5552933;23;20061;-82
2024/01/25 10:08:06;;;;;;;45.23;12.13;;;6.30;99.90;;;;;;5045915;28;40164;-81
2024/01/25 10:52:43;;;;;;;65.60;16.00;;;7.10;99.90;;;;;;5500704;23;20023;-83
2024/01/25 10:55:39;;;;;;;69.80;16.13;;;7.20;99.90;;;;;;5027434;28;39592;-83
2024/01/25 11:01:58;;;;;;;61.47;15.77;;;7.40;99.90;;;;;;5033279;28;42095;-83
2024/01/25 11:05:32;;;;;;;56.67;15.50;;;7.40;99.90;;;;;;4961550;28;39242;-82
2024/01/25 11:09:25;;;;;;;64.60;16.80;;;7.40;99.90;;;;;;4999342;28;50333;-84
2024/01/25 11:15:52;;;;;;;71.73;16.50;;;7.50;99.90;;;;;;5123575;23;20056;-81
2024/01/25 11:19:19;;;;;;;69.27;16.03;;;7.60;99.90;;;;;;5044072;28;39922;-81
2024/01/25 11:22:42;;;;;;;53.30;13.80;;;7.60;99.90;;;;;;5030911;28;49406;-81
2024/01/25 11:25:37;;;;;;;62.37;16.10;;;7.60;99.90;;;;;;5011304;28;50427;-83
2024/01/25 11:28:09;;;;;;;59.73;13.67;;;7.70;99.90;;;;;;5012662;28;38549;-81
2024/01/25 11:30:55;;;;;;;51.67;12.03;;;7.70;99.90;;;;;;5042915;28;38995;-81
2024/01/25 11:33:52;;;;;;;53.33;14.30;;;7.70;99.90;;;;;;5030083;28;39130;-82
2024/01/25 11:37:01;;;;;;;58.60;12.67;;;7.70;99.90;;;;;;5039882;28;38852;-82
2024/01/25 11:39:53;;;;;;;58.33;13.83;;;7.80;99.90;;;;;;5041981;28;50162;-83
2024/01/25 11:42:44;;;;;;;55.17;12.67;;;7.80;99.90;;;;;;5044392;28;49372;-81
2024/01/25 11:45:25;;;;;;;50.53;11.90;;;7.90;99.90;;;;;;5046831;28;39665;-80
2024/01/25 11:48:03;;;;;;;55.03;11.50;;;7.90;99.90;;;;;;5056314;28;38841;-82
2024/01/25 11:50:44;;;;;;;56.83;11.20;;;8.00;99.90;;;;;;5000783;28;47487;-82
2024/01/25 11:53:32;;;;;;;51.83;11.33;;;8.00;99.90;;;;;;5024270;28;39794;-80
2024/01/25 11:56:52;;;;;;;54.33;11.45;;;8.10;99.90;;;;;;5058910;28;38657;-81
2024/01/25 11:59:57;;;;;;;51.40;10.10;;;8.20;99.90;;;;;;5046969;28;38736;-81
2024/01/25 12:02:48;;;;;;;64.53;11.00;;;8.20;99.90;;;;;;5009970;28;39538;-83
2024/01/25 12:05:27;;;;;;;53.78;10.73;;;8.30;99.90;;;;;;5027066;28;39818;-81
2024/01/25 12:08:19;;;;;;;43.03;10.10;;;8.40;99.90;;;;;;5012494;28;39541;-81
2024/01/25 12:10:46;;;;;;;58.17;10.75;;;8.50;99.90;;;;;;5065614;28;36985;-80
2024/01/25 12:13:17;;;;;;;56.40;11.17;;;8.60;99.90;;;;;;5053513;28;39645;-81
2024/01/25 12:16:06;;;;;;;56.17;10.20;;;8.70;99.90;;;;;;5043357;28;40684;-82
2024/01/25 12:18:37;;;;;;;53.97;8.50;;;8.70;99.90;;;;;;5035691;28;48721;-81
2024/01/25 12:21:29;;;;;;;55.20;10.68;;;8.80;99.90;;;;;;5000519;28;38169;-81
2024/01/25 12:24:13;;;;;;;52.47;10.03;;;8.80;99.90;;;;;;5032292;28;40151;-82
2024/01/25 12:27:37;;;;;;;;;;;;;;;;;;;;;
2024/01/25 12:30:19;;;;;;;49.87;9.57;;;8.80;99.90;;;;;;4995055;28;49205;-81
2024/01/25 12:34:00;;;;;;;42.97;9.47;;;8.80;99.90;;;;;;4989365;28;38238;-82
2024/01/25 12:36:57;;;;;;;52.70;10.80;;;8.90;99.90;;;;;;5025914;28;49715;-82
2024/01/25 12:39:31;;;;;;;46.50;9.83;;;8.90;99.90;;;;;;5019715;28;39324;-80
2024/01/25 12:42:05;;;;;;;45.97;10.80;;;9.00;99.90;;;;;;5054440;28;38457;-81
2024/01/25 12:44:54;;;;;;;47.20;10.57;;;9.00;99.90;;;;;;5007536;28;49327;-80
2024/01/25 12:47:50;;;;;;;47.47;10.53;;;9.10;99.90;;;;;;5028964;28;49411;-80
2024/01/25 12:51:10;;;;;;;48.45;10.27;;;9.10;99.90;;;;;;5014287;28;49526;-81
2024/01/25 12:54:28;;;;;;;42.13;10.70;;;9.30;99.90;;;;;;5062461;28;50333;-81
2024/01/25 12:57:37;;;;;;;43.57;9.73;;;9.40;99.90;;;;;;5027757;28;50390;-81
2024/01/25 13:00:33;;;;;;;41.37;10.07;;;9.40;99.90;;;;;;5017671;28;49849;-81
2024/01/25 13:03:40;;;;;;;51.73;12.27;;;9.60;99.90;;;;;;4973391;28;49853;-80
2024/01/25 13:06:46;;;;;;;34.07;11.30;;;9.60;99.90;;;;;;5035531;28;39866;-82
2024/01/25 13:09:55;;;;;;;46.73;13.63;;;9.50;99.90;;;;;;5055051;28;38985;-81
2024/01/25 13:13:06;;;;;;;48.63;15.30;;;9.20;99.90;;;;;;5059113;28;39414;-83
2024/01/25 13:16:31;;;;;;;55.40;18.88;;;9.00;99.90;;;;;;5015981;28;40009;-82
2024/01/25 13:19:47;;;;;;;46.57;16.90;;;8.90;99.90;;;;;;5005816;28;39772;-82
2024/01/25 13:23:01;;;;;;;54.50;19.07;;;9.00;99.90;;;;;;4941840;28;49887;-83
2024/01/25 13:32:55;;;;;;;53.27;21.70;;;8.80;99.90;;;;;;4925010;28;49189;-83
2024/01/25 13:35:52;;;;;;;55.10;24.57;;;8.80;99.90;;;;;;4978495;28;50193;-82
2024/01/25 13:39:12;;;;;;;61.47;26.00;;;8.60;99.90;;;;;;4961134;28;40339;-81
2024/01/25 13:45:31;;;;;;;52.80;26.10;;;8.70;99.90;;;;;;4922346;28;50740;-82
2024/01/25 13:48:35;;;;;;;61.20;25.53;;;8.70;99.90;;;;;;4990209;28;35459;-82
2024/01/25 13:51:39;;;;;;;74.07;28.87;;;8.70;99.90;;;;;;4954847;28;49403;-83
2024/01/25 13:57:39;;;;;;;68.77;29.80;;;8.60;99.90;;;;;;4451979;22;20042;-84
2024/01/25 14:14:32;;;;;;;66.27;28.70;;;8.70;99.90;;;;;;5864640;22;20044;-81
2024/01/25 14:17:08;;;;;;;78.23;30.47;;;8.80;99.90;;;;;;5068887;27;39111;-81
2024/01/25 14:19:56;;;;;;;66.93;27.97;;;8.80;99.90;;;;;;5050074;28;50346;-81
2024/01/25 14:25:15;;;;;;;54.90;25.13;;;8.90;99.90;;;;;;5152806;23;20030;-80
2024/01/25 14:28:01;;;;;;;57.63;25.93;;;8.90;99.90;;;;;;5048041;28;39727;-80
2024/01/25 14:30:34;;;;;;;55.50;24.30;;;8.80;99.90;;;;;;5042913;28;38618;-80
2024/01/25 14:33:31;;;;;;;50.17;23.63;;;8.80;99.90;;;;;;5006446;28;37959;-81
2024/01/25 14:36:02;;;;;;;53.97;23.63;;;8.90;99.90;;;;;;5016921;28;49727;-81
2024/01/25 14:38:55;;;;;;;47.53;22.80;;;8.90;99.90;;;;;;5029456;28;50077;-81
2024/01/25 14:42:04;;;;;;;59.07;22.83;;;8.90;99.90;;;;;;4996596;28;49489;-81
2024/01/25 14:44:41;;;;;;;46.28;22.45;;;8.90;99.90;;;;;;5008468;28;48833;-81
2024/01/25 14:48:10;;;;;;;53.70;22.42;;;8.80;99.90;;;;;;5067270;28;39390;-82
2024/01/25 14:50:52;;;;;;;49.03;22.90;;;8.90;99.90;;;;;;5048850;28;39669;-82
2024/01/25 14:54:23;;;;;;;47.57;22.30;;;8.90;99.90;;;;;;5028658;28;40776;-82
2024/01/25 14:57:30;;;;;;;56.43;24.27;;;8.90;99.90;;;;;;5042798;28;50225;-81
2024/01/25 15:00:40;;;;;;;62.57;23.70;;;8.90;99.90;;;;;;5028658;28;40182;-81
2024/01/25 15:03:45;;;;;;;47.27;22.33;;;8.90;99.90;;;;;;5060313;28;39721;-82
2024/01/25 15:06:38;;;;;;;53.25;23.63;;;8.90;99.90;;;;;;5023474;28;39291;-81
2024/01/25 15:09:37;;;;;;;48.00;24.20;;;8.90;99.90;;;;;;5010237;28;37468;-81
2024/01/25 15:12:13;;;;;;;51.30;23.73;;;8.90;99.90;;;;;;5040279;28;39208;-81
2024/01/25 15:14:55;;;;;;;49.20;23.83;;;9.00;99.90;;;;;;5039347;28;40255;-81
2024/01/25 15:18:07;;;;;;;54.70;24.53;;;9.00;99.90;;;;;;5028105;28;39387;-81
2024/01/25 15:20:51;;;;;;;54.90;24.67;;;9.00;99.90;;;;;;5064219;28;38872;-82
2024/01/25 15:23:47;;;;;;;52.77;24.70;;;9.00;99.90;;;;;;5468585;22;39557;-83
2024/01/25 15:28:56;;;;;;;54.17;26.37;;;9.10;99.90;;;;;;5855065;22;20048;-82
2024/01/25 15:34:21;;;;;;;51.17;25.87;;;9.10;99.90;;;;;;5402841;23;20042;-80
2024/01/25 15:37:03;;;;;;;53.57;25.93;;;9.10;99.90;;;;;;5000694;28;49129;-80
2024/01/25 15:39:36;;;;;;;55.47;26.63;;;9.20;99.90;;;;;;4976519;28;49942;-80
2024/01/25 15:42:39;;;;;;;47.85;26.35;;;9.20;99.90;;;;;;5030554;28;38300;-81
2024/01/25 15:45:21;;;;;;;48.57;27.17;;;9.20;99.90;;;;;;5008608;28;39864;-81
2024/01/25 15:48:13;;;;;;;49.27;26.73;;;9.20;99.90;;;;;;5015308;28;39512;-82
2024/01/25 15:51:05;;;;;;;56.47;29.03;;;9.20;99.90;;;;;;5015869;28;39294;-81
2024/01/25 15:54:21;;;;;;;63.07;32.27;;;9.20;99.90;;;;;;4989382;28;47872;-81
2024/01/25 15:56:55;;;;;;;55.60;30.37;;;9.20;99.90;;;;;;5028074;28;40175;-80
2024/01/25 15:59:26;;;;;;;57.23;28.70;;;9.20;99.90;;;;;;5009998;28;38882;-80
2024/01/25 16:02:27;;;;;;;65.83;31.20;;;9.20;99.90;;;;;;5003267;28;38502;-81
2024/01/25 16:05:02;;;;;;;63.90;32.67;;;9.20;99.90;;;;;;5010632;28;48896;-81
2024/01/25 16:07:36;;;;;;;64.50;31.80;;;9.20;99.90;;;;;;4991929;28;38779;-81
2024/01/25 16:10:12;;;;;;;59.90;33.30;;;9.20;99.90;;;;;;5022032;28;39184;-80
2024/01/25 16:12:48;;;;;;;60.90;31.63;;;9.20;99.90;;;;;;5022917;28;38675;-81
2024/01/25 16:15:34;;;;;;;53.30;31.43;;;9.20;99.90;;;;;;5001764;28;38866;-80
2024/01/25 16:18:20;;;;;;;62.67;32.77;;;9.20;99.90;;;;;;4992247;28;39123;-81
2024/01/25 16:21:06;;;;;;;55.53;33.20;;;9.20;99.90;;;;;;5020440;28;38823;-82
2024/01/25 16:36:32;;;;;;;64.60;33.03;;;9.30;99.90;;;;;;5729335;22;20354;-81
2024/01/25 16:39:00;;;;;;;55.40;32.70;;;9.30;99.90;;;;;;5073060;28;38996;-80
2024/01/25 16:41:29;;;;;;;56.20;32.00;;;9.30;99.90;;;;;;5076047;28;39138;-81
2024/01/25 16:46:35;;;;;;;57.60;32.83;;;9.30;99.90;;;;;;5939791;23;20037;-83
2024/01/25 16:49:20;;;;;;;65.17;34.17;;;9.30;99.90;;;;;;5040300;28;39371;-81
2024/01/25 16:51:51;;;;;;;59.80;33.30;;;9.30;99.90;;;;;;5069678;28;49466;-81
2024/01/25 16:54:19;;;;;;;48.83;32.90;;;9.30;99.90;;;;;;5056277;28;36894;-81
2024/01/25 16:56:48;;;;;;;54.53;33.53;;;9.30;99.90;;;;;;5064815;28;37248;-81
2024/01/25 16:59:16;;;;;;;56.27;35.43;;;9.30;99.90;;;;;;5074327;28;39379;-82
2024/01/25 17:01:43;;;;;;;58.13;35.10;;;9.40;99.90;;;;;;5070276;28;39417;-79
2024/01/25 17:04:13;;;;;;;55.30;35.03;;;9.40;99.90;;;;;;5081514;28;37453;-80
2024/01/25 17:06:41;;;;;;;57.30;35.13;;;9.40;99.90;;;;;;5077244;28;38896;-80
2024/01/25 17:09:09;;;;;;;57.07;35.97;;;9.40;99.90;;;;;;5069025;28;38806;-80
2024/01/25 17:11:36;;;;;;;52.83;34.73;;;9.40;99.90;;;;;;5062992;28;37852;-80
2024/01/25 17:14:02;;;;;;;62.83;36.60;;;9.40;99.90;;;;;;5054751;28;37488;-81
2024/01/25 17:16:28;;;;;;;64.17;36.20;;;9.40;99.90;;;;;;5058321;28;36347;-79
2024/01/25 17:18:54;;;;;;;57.80;34.37;;;9.40;99.90;;;;;;5066383;28;37993;-80
2024/01/25 17:21:21;;;;;;;64.60;36.27;;;9.50;99.90;;;;;;5063141;28;39010;-79
2024/01/25 17:23:47;;;;;;;59.37;35.90;;;9.40;99.90;;;;;;5059260;28;36915;-80
2024/01/25 17:26:13;;;;;;;70.53;37.77;;;9.50;99.90;;;;;;5074001;28;35898;-80
2024/01/25 17:28:39;;;;;;;60.20;35.67;;;9.50;99.90;;;;;;5068273;28;38311;-80
2024/01/25 17:31:06;;;;;;;65.33;37.47;;;9.40;99.90;;;;;;5075293;28;39647;-80
2024/01/25 17:33:37;;;;;;;68.50;39.07;;;9.50;99.90;;;;;;5057800;28;37319;-79
2024/01/25 17:36:04;;;;;;;74.70;40.43;;;9.50;99.90;;;;;;5063697;28;37975;-80
2024/01/25 17:38:43;;;;;;;71.03;38.80;;;9.50;99.90;;;;;;5057372;28;37765;-82
2024/01/25 17:41:26;;;;;;;63.47;39.00;;;9.50;99.90;;;;;;5096485;22;37917;-78
2024/01/25 17:43:54;;;;;;;76.43;40.87;;;9.60;99.90;;;;;;5029307;28;37582;-82
2024/01/25 17:46:20;;;;;;;64.47;38.23;;;9.60;99.90;;;;;;5044820;28;37507;-80
2024/01/25 17:48:53;;;;;;;67.03;41.00;;;9.60;99.90;;;;;;5055727;28;38971;-81